createdAt,value
2022-08-05T00:01:49.563Z,100836.35
2022-08-05T00:04:46.341Z,100830.52
2022-08-05T00:07:59.683Z,100828.83
2022-08-05T00:11:00.650Z,100829.05
2022-08-05T00:14:01.002Z,100831.74
2022-08-05T00:17:03.776Z,100833.48
2022-08-05T00:20:20.317Z,100837.14
2022-08-05T00:23:44.565Z,100838.42
2022-08-05T00:26:36.920Z,100835.78
2022-08-05T00:29:38.102Z,100834.73
2022-08-05T00:32:38.021Z,100831.20
2022-08-05T00:35:36.970Z,100828.03
2022-08-05T00:38:44.020Z,100831.98
2022-08-05T00:41:46.833Z,100829.39
2022-08-05T00:44:51.393Z,100829.11
2022-08-05T00:47:57.386Z,100825.45
2022-08-05T00:51:00.133Z,100822.55
2022-08-05T00:54:03.993Z,100824.02
2022-08-05T00:56:59.621Z,100822.21
2022-08-05T00:59:55.025Z,100821.45
2022-08-05T01:02:51.075Z,100823.48
2022-08-05T01:06:11.302Z,100822.48
2022-08-05T01:09:31.467Z,100826.27
2022-08-05T01:12:39.598Z,100824.60
2022-08-05T01:16:00.502Z,100822.29
2022-08-05T01:19:01.343Z,100819.81
2022-08-05T01:22:27.937Z,100816.64
2022-08-05T01:25:43.603Z,100819.39
2022-08-05T01:28:53.183Z,100815.00
2022-08-05T01:31:49.977Z,100813.88
2022-08-05T01:34:47.921Z,100812.89
2022-08-05T01:37:47.196Z,100811.75
2022-08-05T01:40:44.335Z,100806.02
2022-08-05T01:43:42.563Z,100805.45
2022-08-05T01:46:46.498Z,100805.81
2022-08-05T01:50:01.721Z,100801.87
2022-08-05T01:52:59.045Z,100797.54
2022-08-05T01:55:53.353Z,100793.05
2022-08-05T01:58:50.263Z,100790.70
2022-08-05T02:01:45.268Z,100786.22
2022-08-05T02:04:43.313Z,100785.39
2022-08-05T02:07:56.229Z,100781.52
2022-08-05T02:10:58.967Z,100781.28
2022-08-05T02:14:02.592Z,100779.88
2022-08-05T02:17:00.840Z,100777.73
2022-08-05T02:20:03.703Z,100779.35
2022-08-05T02:23:02.696Z,100774.04
2022-08-05T02:26:01.530Z,100773.25
2022-08-05T02:28:58.361Z,100772.77
2022-08-05T02:31:53.351Z,100774.70
2022-08-05T02:34:54.496Z,100776.09
2022-08-05T02:37:54.114Z,100776.38
2022-08-05T02:40:51.074Z,100775.33
2022-08-05T02:44:02.486Z,100775.73
2022-08-05T02:47:01.836Z,100777.04
2022-08-05T02:49:56.117Z,100773.92
2022-08-05T02:52:50.951Z,100771.16
2022-08-05T02:55:52.165Z,100768.02
2022-08-05T02:58:55.170Z,100771.98
2022-08-05T03:01:58.353Z,100766.67
2022-08-05T03:04:55.035Z,100764.82
2022-08-05T03:08:01.853Z,100756.50
2022-08-05T03:11:56.393Z,100758.57
2022-08-05T03:14:22.537Z,100760.17
2022-08-05T03:17:23.091Z,100757.54
2022-08-05T03:20:19.281Z,100759.89
2022-08-05T03:23:16.566Z,100763.14
2022-08-05T03:26:32.041Z,100758.40
2022-08-05T03:29:46.002Z,100760.05
2022-08-05T03:32:44.571Z,100759.92
2022-08-05T03:35:41.868Z,100762.81
2022-08-05T03:38:37.397Z,100761.24
2022-08-05T03:41:38.699Z,100761.09
2022-08-05T03:44:40.365Z,100756.68
2022-08-05T03:47:41.349Z,100750.27
2022-08-05T03:50:45.427Z,100749.17
2022-08-05T03:55:49.952Z,100744.69
2022-08-05T03:57:00.175Z,100744.12
2022-08-05T03:59:58.826Z,100744.48
2022-08-05T04:03:26.660Z,100744.73
2022-08-05T04:06:30.673Z,100746.96
2022-08-05T04:09:28.755Z,100742.48
2022-08-05T04:12:27.435Z,100742.30
2022-08-05T04:15:36.203Z,100741.11
2022-08-05T04:18:38.280Z,100739.17
2022-08-05T04:22:09.669Z,100739.06
2022-08-05T04:24:55.457Z,100737.33
2022-08-05T04:27:57.184Z,100734.00
2022-08-05T04:30:55.266Z,100734.58
2022-08-05T04:34:17.344Z,100733.54
2022-08-05T04:37:10.112Z,100732.30
2022-08-05T04:40:11.841Z,100732.89
2022-08-05T04:43:16.496Z,100732.98
2022-08-05T04:46:27.813Z,100736.23
2022-08-05T04:49:38.781Z,100743.85
2022-08-05T04:52:43.993Z,100744.88
2022-08-05T04:56:32.356Z,100744.17
2022-08-05T04:59:01.445Z,100744.55
2022-08-05T05:02:36.795Z,100743.48
2022-08-05T05:06:39.070Z,100740.92
2022-08-05T05:09:24.433Z,100735.89
2022-08-05T05:12:47.170Z,100739.05
2022-08-05T05:16:02.139Z,100740.13
2022-08-05T05:19:23.555Z,100740.02
2022-08-05T05:22:33.656Z,100738.40
2022-08-05T05:25:41.140Z,100736.48
2022-08-05T05:28:44.971Z,100733.27
2022-08-05T05:31:46.534Z,100730.09
2022-08-05T05:35:03.269Z,100731.77
2022-08-05T05:38:15.188Z,100731.20
2022-08-05T05:41:40.605Z,100734.11
2022-08-05T05:44:44.376Z,100732.86
2022-08-05T05:48:05.370Z,100730.34
2022-08-05T05:51:15.788Z,100727.50
2022-08-05T05:54:13.810Z,100727.61
2022-08-05T05:57:23.394Z,100729.11
2022-08-05T06:00:34.198Z,100732.52
2022-08-05T06:04:01.342Z,100730.63
2022-08-05T06:07:10.573Z,100729.67
2022-08-05T06:10:18.213Z,100724.23
2022-08-05T06:13:19.237Z,100719.71
2022-08-05T06:16:29.346Z,100721.73
2022-08-05T06:19:39.298Z,100720.20
2022-08-05T06:22:40.405Z,100720.63
2022-08-05T06:26:12.138Z,100720.36
2022-08-05T06:29:23.867Z,100716.41
2022-08-05T06:32:38.248Z,100717.89
2022-08-05T06:36:07.113Z,100717.33
2022-08-05T06:39:01.121Z,100721.52
2022-08-05T06:42:04.387Z,100716.79
2022-08-05T06:45:05.302Z,100716.54
2022-08-05T06:48:36.565Z,100716.61
2022-08-05T06:51:31.505Z,100712.17
2022-08-05T06:54:38.210Z,100710.61
2022-08-05T06:58:03.259Z,100712.78
2022-08-05T07:01:14.118Z,100716.02
2022-08-05T07:04:34.235Z,100714.34
2022-08-05T07:07:43.257Z,100710.19
2022-08-05T07:10:52.888Z,100710.98
2022-08-05T07:14:29.224Z,100708.33
2022-08-05T07:17:59.876Z,100713.31
2022-08-05T07:21:05.403Z,100716.30
2022-08-05T07:24:16.281Z,100715.73
2022-08-05T07:27:58.180Z,100716.55
2022-08-05T07:30:55.281Z,100719.64
2022-08-05T07:34:00.995Z,100722.10
2022-08-05T07:37:11.917Z,100721.86
2022-08-05T07:40:32.190Z,100722.60
2022-08-05T07:43:37.322Z,100727.70
2022-08-05T07:46:48.261Z,100715.90
2022-08-05T07:50:06.641Z,100713.06
2022-08-05T07:53:17.666Z,100715.77
2022-08-05T07:57:00.887Z,100710.12
2022-08-05T07:59:55.042Z,100711.11
2022-08-05T08:03:14.689Z,100707.65
2022-08-05T08:06:28.116Z,100708.98
2022-08-05T08:09:33.261Z,100709.97
2022-08-05T08:12:49.314Z,100705.91
2022-08-05T08:16:35.755Z,100701.66
2022-08-05T08:20:20.926Z,100701.14
2022-08-05T08:22:57.156Z,100699.77
2022-08-05T08:25:59.979Z,100699.02
2022-08-05T08:29:45.439Z,100697.53
2022-08-05T08:32:31.023Z,100702.56
2022-08-05T08:35:35.070Z,100706.67
2022-08-05T08:38:53.225Z,100708.02
2022-08-05T08:41:59.691Z,100706.95
2022-08-05T08:45:22.542Z,100703.28
2022-08-05T08:49:04.201Z,100702.21
2022-08-05T08:52:13.180Z,100697.51
2022-08-05T08:56:01.889Z,100693.68
2022-08-05T08:58:48.679Z,100684.92
2022-08-05T09:02:05.864Z,100681.78
2022-08-05T09:05:18.936Z,100677.09
2022-08-05T09:08:48.129Z,100678.60
2022-08-05T09:12:20.213Z,100677.58
2022-08-05T09:15:39.306Z,100670.52
2022-08-05T09:18:56.352Z,100673.83
2022-08-05T09:22:17.634Z,100672.13
2022-08-05T09:26:00.971Z,100671.80
2022-08-05T09:28:49.127Z,100668.29
2022-08-05T09:32:46.433Z,100668.42
2022-08-05T09:35:43.234Z,100664.63
2022-08-05T09:38:45.162Z,100665.40
2022-08-05T09:42:05.026Z,100662.86
2022-08-05T09:46:07.137Z,100653.45
2022-08-05T09:48:55.300Z,100647.27
2022-08-05T09:52:27.028Z,100647.10
2022-08-05T09:55:57.871Z,100651.52
2022-08-05T09:58:47.455Z,100645.27
2022-08-05T10:01:58.393Z,100662.30
2022-08-05T10:05:16.240Z,100645.80
2022-08-05T10:08:37.653Z,100642.35
2022-08-05T10:11:41.393Z,100636.03
2022-08-05T10:14:41.078Z,100637.35
2022-08-05T10:17:47.165Z,100634.75
2022-08-05T10:21:20.411Z,100635.77
2022-08-05T10:24:30.939Z,100632.76
2022-08-05T10:28:09.642Z,100632.98
2022-08-05T10:32:50.998Z,100627.46
2022-08-05T10:34:25.774Z,100625.69
2022-08-05T10:37:44.819Z,100632.98
2022-08-05T10:40:52.159Z,100624.83
2022-08-05T10:44:01.875Z,100631.04
2022-08-05T10:47:25.924Z,100621.94
2022-08-05T10:50:41.395Z,100618.83
2022-08-05T10:54:05.803Z,100617.02
2022-08-05T10:57:33.755Z,100610.97
2022-08-05T11:00:42.043Z,100610.77
2022-08-05T11:04:13.077Z,100615.99
2022-08-05T11:07:17.376Z,100608.49
2022-08-05T11:10:34.392Z,100603.45
2022-08-05T11:13:54.727Z,100598.59
2022-08-05T11:18:00.214Z,100589.64
2022-08-05T11:21:13.380Z,100601.77
2022-08-05T11:24:30.682Z,100593.92
2022-08-05T11:27:50.947Z,100592.20
2022-08-05T11:31:58.122Z,100591.05
2022-08-05T11:35:11.440Z,100597.14
2022-08-05T11:38:46.109Z,100591.35
2022-08-05T11:42:07.008Z,100592.10
2022-08-05T11:46:27.075Z,100583.80
2022-08-05T11:48:56.461Z,100583.56
2022-08-05T11:51:58.410Z,100584.13
2022-08-05T11:55:14.479Z,100577.03
2022-08-05T11:58:18.165Z,100581.32
2022-08-05T12:01:27.626Z,100585.73
2022-08-05T12:04:46.461Z,100577.61
2022-08-05T12:08:11.407Z,100581.11
2022-08-05T12:11:40.252Z,100581.02
2022-08-05T12:14:59.665Z,100575.20
2022-08-05T12:18:12.010Z,100568.14
2022-08-05T12:21:39.241Z,100564.31
2022-08-05T12:24:54.442Z,100564.35
2022-08-05T12:27:56.947Z,100564.56
2022-08-05T12:31:14.664Z,100561.30
2022-08-05T12:34:35.758Z,100558.37
2022-08-05T12:37:47.754Z,100560.50
2022-08-05T12:41:02.513Z,100550.13
2022-08-05T12:44:28.681Z,100553.29
2022-08-05T12:48:01.381Z,100544.84
2022-08-05T12:52:12.981Z,100547.61
2022-08-05T12:54:44.547Z,100547.80
2022-08-05T12:58:39.017Z,100544.61
2022-08-05T13:02:02.059Z,100536.77
2022-08-05T13:04:52.576Z,100536.11
2022-08-05T13:08:18.488Z,100530.73
2022-08-05T13:12:03.100Z,100530.06
2022-08-05T13:15:41.310Z,100528.33
2022-08-05T13:19:04.477Z,100529.11
2022-08-05T13:22:12.099Z,100531.81
2022-08-05T13:25:18.700Z,100516.52
2022-08-05T13:28:23.006Z,100517.41
2022-08-05T13:31:33.772Z,100509.63
2022-08-05T13:35:01.250Z,100505.88
2022-08-05T13:38:20.559Z,100501.51
2022-08-05T13:41:41.452Z,100499.15
2022-08-05T13:44:49.524Z,100493.21
2022-08-05T13:48:09.877Z,100496.01
2022-08-05T13:51:41.041Z,100485.15
2022-08-05T13:54:43.181Z,100488.28
2022-08-05T13:58:06.851Z,100486.86
2022-08-05T14:01:19.419Z,100485.91
2022-08-05T14:04:49.791Z,100482.77
2022-08-05T14:08:02.930Z,100493.91
2022-08-05T14:11:24.231Z,100489.20
2022-08-05T14:14:33.610Z,100480.95
2022-08-05T14:17:36.626Z,100475.16
2022-08-05T14:20:41.712Z,100479.73
2022-08-05T14:23:51.465Z,100466.78
2022-08-05T14:27:17.670Z,100473.92
2022-08-05T14:30:21.411Z,100469.38
2022-08-05T14:34:00.169Z,100463.93
2022-08-05T14:37:04.521Z,100457.79
2022-08-05T14:40:18.555Z,100468.06
2022-08-05T14:43:21.897Z,100461.20
2022-08-05T14:46:47.508Z,100471.88
2022-08-05T14:49:59.723Z,100457.89
2022-08-05T14:53:16.552Z,100447.50
2022-08-05T14:56:22.629Z,100453.59
2022-08-05T14:59:35.409Z,100462.28
2022-08-05T15:02:46.037Z,100458.45
2022-08-05T15:06:07.925Z,100457.41
2022-08-05T15:09:08.865Z,100463.89
2022-08-05T15:12:17.503Z,100457.38
2022-08-05T15:15:55.842Z,100462.84
2022-08-05T15:18:53.678Z,100459.67
2022-08-05T15:22:00.907Z,100466.07
2022-08-05T15:25:13.579Z,100461.40
2022-08-05T15:28:18.217Z,100469.98
2022-08-05T15:31:34.689Z,100471.84
2022-08-05T15:34:34.705Z,100460.07
2022-08-05T15:38:09.086Z,100462.14
2022-08-05T15:41:24.111Z,100448.60
2022-08-05T15:44:30.145Z,100452.27
2022-08-05T15:47:37.488Z,100456.19
2022-08-05T15:50:39.052Z,100447.73
2022-08-05T15:53:51.290Z,100445.69
2022-08-05T15:56:58.961Z,100438.67
2022-08-05T16:00:07.693Z,100442.30
2022-08-05T16:03:14.647Z,100447.19
2022-08-05T16:06:19.640Z,100449.48
2022-08-05T16:09:27.432Z,100446.72
2022-08-05T16:12:32.550Z,100447.06
2022-08-05T16:15:41.376Z,100442.86
2022-08-05T16:18:52.382Z,100443.16
2022-08-05T16:22:02.979Z,100440.44
2022-08-05T16:25:10.619Z,100440.73
2022-08-05T16:28:17.586Z,100431.47
2022-08-05T16:31:20.394Z,100436.05
2022-08-05T16:34:22.051Z,100426.48
2022-08-05T16:38:15.822Z,100427.05
2022-08-05T16:40:55.086Z,100429.42
2022-08-05T16:44:09.529Z,100426.72
2022-08-05T16:47:28.743Z,100424.44
2022-08-05T16:50:47.572Z,100425.99
2022-08-05T16:54:02.764Z,100427.14
2022-08-05T16:57:22.319Z,100424.34
2022-08-05T17:00:43.432Z,100418.98
2022-08-05T17:03:57.120Z,100417.51
2022-08-05T17:07:11.433Z,100412.38
2022-08-05T17:10:13.917Z,100411.50
2022-08-05T17:13:21.353Z,100407.70
2022-08-05T17:16:53.301Z,100410.92
2022-08-05T17:19:58.944Z,100408.47
2022-08-05T17:23:00.097Z,100405.54
2022-08-05T17:26:11.752Z,100403.01
2022-08-05T17:29:15.722Z,100404.16
2022-08-05T17:32:28.861Z,100398.99
2022-08-05T17:36:08.050Z,100398.00
2022-08-05T17:38:53.291Z,100399.14
2022-08-05T17:42:17.907Z,100403.66
2022-08-05T17:45:38.056Z,100406.17
2022-08-05T17:48:40.622Z,100405.59
2022-08-05T17:51:56.662Z,100404.30
2022-08-05T17:55:07.897Z,100401.48
2022-08-05T17:58:16.698Z,100401.29
2022-08-05T18:01:30.449Z,100401.95
2022-08-05T18:05:07.569Z,100400.23
2022-08-05T18:08:14.666Z,100403.82
2022-08-05T18:11:34.694Z,100403.50
2022-08-05T18:14:39.194Z,100404.68
2022-08-05T18:18:01.414Z,100402.96
2022-08-05T18:21:04.709Z,100405.88
2022-08-05T18:24:16.483Z,100410.35
2022-08-05T18:27:19.361Z,100410.19
2022-08-05T18:30:26.293Z,100409.23
2022-08-05T18:33:26.265Z,100404.40
2022-08-05T18:36:43.700Z,100402.55
2022-08-05T18:41:53.191Z,100402.74
2022-08-05T18:43:21.030Z,100404.23
2022-08-05T18:46:29.255Z,100404.36
2022-08-05T18:49:58.048Z,100406.05
2022-08-05T18:53:20.569Z,100407.67
2022-08-05T18:56:25.298Z,100410.23
2022-08-05T18:59:42.941Z,100413.46
2022-08-05T19:03:06.739Z,100417.54
2022-08-05T19:06:21.643Z,100420.14
2022-08-05T19:09:40.006Z,100423.52
2022-08-05T19:12:54.688Z,100427.21
2022-08-05T19:15:59.089Z,100426.36
2022-08-05T19:19:20.847Z,100426.63
2022-08-05T19:22:39.892Z,100428.02
2022-08-05T19:26:01.958Z,100425.86
2022-08-05T19:29:16.376Z,100420.87
2022-08-05T19:32:30.268Z,100418.09
2022-08-05T19:35:55.906Z,100420.96
2022-08-05T19:39:02.860Z,100426.02
2022-08-05T19:42:15.756Z,100425.11
2022-08-05T19:45:22.649Z,100425.06
2022-08-05T19:48:30.028Z,100425.16
2022-08-05T19:52:05.013Z,100430.84
2022-08-05T19:56:15.228Z,100437.45
2022-08-05T19:58:53.077Z,100436.02
2022-08-05T20:01:55.568Z,100439.41
2022-08-05T20:05:04.786Z,100468.51
2022-08-05T20:08:14.331Z,100503.58
2022-08-05T20:11:22.744Z,100488.50
2022-08-05T20:14:27.370Z,100485.58
2022-08-05T20:17:36.442Z,100494.86
2022-08-05T20:20:50.069Z,100482.49
2022-08-05T20:24:05.301Z,100481.11
2022-08-05T20:27:11.447Z,100490.27
2022-08-05T20:30:21.660Z,100496.89
2022-08-05T20:33:31.020Z,100505.31
2022-08-05T20:36:44.823Z,100513.31
2022-08-05T20:39:53.763Z,100516.29
2022-08-05T20:43:00.179Z,100521.91
2022-08-05T20:46:04.169Z,100526.98
2022-08-05T20:49:08.773Z,100526.55
2022-08-05T20:52:10.679Z,100531.64
2022-08-05T20:55:56.641Z,100526.69
2022-08-05T20:58:37.018Z,100531.77
2022-08-05T21:01:38.551Z,100529.38
2022-08-05T21:04:52.301Z,100525.66
2022-08-05T21:08:00.021Z,100526.46
2022-08-05T21:10:59.396Z,100533.80
2022-08-05T21:14:02.417Z,100530.50
2022-08-05T21:17:03.031Z,100536.60
2022-08-05T21:20:12.487Z,100539.00
2022-08-05T21:23:23.786Z,100534.52
2022-08-05T21:26:29.588Z,100535.73
2022-08-05T21:29:32.826Z,100539.36
2022-08-05T21:32:50.874Z,100546.00
2022-08-05T21:35:58.836Z,100549.64
2022-08-05T21:39:14.392Z,100553.96
2022-08-05T21:42:41.052Z,100562.23
2022-08-05T21:45:56.732Z,100565.69
2022-08-05T21:49:02.651Z,100558.55
2022-08-05T21:52:22.182Z,100555.55
2022-08-05T21:56:01.701Z,100555.80
2022-08-05T21:58:57.100Z,100558.61
2022-08-05T22:02:02.791Z,100558.44
2022-08-05T22:05:17.920Z,100564.50
2022-08-05T22:08:26.513Z,100572.27
2022-08-05T22:11:35.161Z,100574.73
2022-08-05T22:14:44.202Z,100574.57
2022-08-05T22:17:56.476Z,100571.07
2022-08-05T22:21:18.956Z,100562.95
2022-08-05T22:24:40.764Z,100562.84
2022-08-05T22:28:10.362Z,100562.10
2022-08-05T22:31:18.709Z,100566.00
2022-08-05T22:34:28.222Z,100566.59
2022-08-05T22:37:58.016Z,100575.00
2022-08-05T22:41:09.672Z,100584.70
2022-08-05T22:44:21.056Z,100596.11
2022-08-05T22:47:29.115Z,100599.23
2022-08-05T22:50:35.916Z,100608.48
2022-08-05T22:53:37.106Z,100619.63
2022-08-05T22:56:41.315Z,100621.41
2022-08-05T22:59:53.592Z,100623.14
2022-08-05T23:02:53.930Z,100619.47
2022-08-05T23:05:52.445Z,100614.27
2022-08-05T23:08:52.940Z,100610.77
2022-08-05T23:11:56.095Z,100617.24
2022-08-05T23:14:58.549Z,100616.50
2022-08-05T23:18:01.458Z,100614.77
2022-08-05T23:21:02.574Z,100608.77
2022-08-05T23:24:03.774Z,100609.30
2022-08-05T23:27:11.221Z,100608.05
2022-08-05T23:30:15.533Z,100616.32
2022-08-05T23:33:16.134Z,100625.38
2022-08-05T23:36:28.247Z,100638.55
2022-08-05T23:39:32.530Z,100647.78
2022-08-05T23:42:53.679Z,100637.16
2022-08-05T23:45:51.481Z,100639.78
2022-08-05T23:48:59.847Z,100649.92
2022-08-05T23:52:16.474Z,100661.89
2022-08-05T23:55:14.970Z,100655.94
2022-08-05T23:58:32.112Z,100665.92
